createdAt,value
2023-04-26T00:01:36.250Z,9.60
2023-04-26T00:04:10.831Z,2.00
2023-04-26T00:06:44.626Z,5.40
2023-04-26T00:09:19.106Z,3.00
2023-04-26T00:11:54.345Z,3.60
2023-04-26T00:14:28.199Z,2.80
2023-04-26T00:17:04.112Z,2.20
2023-04-26T00:19:40.143Z,4.40
2023-04-26T00:22:13.676Z,4.90
2023-04-26T00:24:47.383Z,2.80
2023-04-26T00:27:22.617Z,2.40
2023-04-26T00:29:56.919Z,3.20
2023-04-26T00:32:30.538Z,3.00
2023-04-26T00:35:09.655Z,12.70
2023-04-26T00:37:45.448Z,1.70
2023-04-26T00:40:21.043Z,3.60
2023-04-26T00:43:01.054Z,2.90
2023-04-26T00:45:34.508Z,2.40
2023-04-26T00:48:08.160Z,2.30
2023-04-26T00:50:41.781Z,1.60
2023-04-26T00:53:16.266Z,3.40
2023-04-26T00:55:51.956Z,1.80
2023-04-26T00:58:25.531Z,1.50
2023-04-26T01:00:59.227Z,1.20
2023-04-26T01:03:33.107Z,3.30
2023-04-26T01:06:09.456Z,6.10
2023-04-26T01:08:43.295Z,1.50
2023-04-26T01:11:17.163Z,2.60
2023-04-26T01:13:51.443Z,1.20
2023-04-26T01:16:26.028Z,1.00
2023-04-26T01:18:59.981Z,1.00
2023-04-26T01:21:33.861Z,0.90
2023-04-26T01:24:08.957Z,1.90
2023-04-26T01:26:46.084Z,4.70
2023-04-26T01:31:52.918Z,1.90
2023-04-26T01:34:26.800Z,2.40
2023-04-26T01:37:02.487Z,5.60
2023-04-26T01:39:38.149Z,1.70
2023-04-26T01:42:11.644Z,1.40
2023-04-26T01:44:45.218Z,1.70
2023-04-26T01:47:18.915Z,5.10
2023-04-26T01:49:53.228Z,1.90
2023-04-26T01:52:26.868Z,3.50
2023-04-26T01:55:00.755Z,5.30
2023-04-26T01:57:34.306Z,1.50
2023-04-26T02:00:10.160Z,2.40
2023-04-26T02:02:43.780Z,6.40
2023-04-26T02:05:17.647Z,2.50
2023-04-26T02:07:52.168Z,3.40
2023-04-26T02:10:25.957Z,5.10
2023-04-26T02:12:59.510Z,3.20
2023-04-26T02:15:33.347Z,4.60
2023-04-26T02:18:07.362Z,4.40
2023-04-26T02:20:43.542Z,19.40
2023-04-26T02:23:17.252Z,18.70
2023-04-26T02:25:51.459Z,3.80
2023-04-26T02:28:26.384Z,8.40
2023-04-26T02:31:01.552Z,6.80
2023-04-26T02:33:34.868Z,5.30
2023-04-26T02:36:09.788Z,11.90
2023-04-26T02:38:43.734Z,10.70
2023-04-26T02:41:17.059Z,12.70
2023-04-26T02:43:50.574Z,7.70
2023-04-26T02:46:24.670Z,8.90
2023-04-26T02:48:58.326Z,6.40
2023-04-26T02:51:34.016Z,12.30
2023-04-26T02:54:08.795Z,5.60
2023-04-26T02:56:42.371Z,6.40
2023-04-26T02:59:15.837Z,2.00
2023-04-26T03:01:49.287Z,5.50
2023-04-26T03:04:23.075Z,10.90
2023-04-26T03:06:57.034Z,6.80
2023-04-26T03:09:30.718Z,4.30
2023-04-26T03:12:04.553Z,2.10
2023-04-26T03:14:39.034Z,3.50
2023-04-26T03:17:12.473Z,2.70
2023-04-26T03:19:46.066Z,6.90
2023-04-26T03:22:23.128Z,1.60
2023-04-26T03:24:57.596Z,4.40
2023-04-26T03:27:34.015Z,3.00
2023-04-26T03:30:08.821Z,4.90
2023-04-26T03:32:42.400Z,3.40
2023-04-26T03:35:16.825Z,11.40
2023-04-26T03:37:52.432Z,9.80
2023-04-26T03:40:27.083Z,4.30
2023-04-26T03:43:03.702Z,10.10
2023-04-26T03:45:37.779Z,16.00
2023-04-26T03:48:11.347Z,6.50
2023-04-26T03:50:46.470Z,27.50
2023-04-26T03:53:20.719Z,6.30
2023-04-26T03:55:54.313Z,3.20
2023-04-26T03:58:29.614Z,4.80
2023-04-26T04:01:04.397Z,5.70
2023-04-26T04:03:40.670Z,4.30
2023-04-26T04:06:17.745Z,4.10
2023-04-26T04:08:51.673Z,5.10
2023-04-26T04:11:25.693Z,8.30
2023-04-26T04:13:59.461Z,10.30
2023-04-26T04:16:33.192Z,4.50
2023-04-26T04:19:06.764Z,3.00
2023-04-26T04:21:40.856Z,9.40
2023-04-26T04:24:14.325Z,13.80
2023-04-26T04:26:48.179Z,5.80
2023-04-26T04:29:21.913Z,6.70
2023-04-26T04:31:55.634Z,4.30
2023-04-26T04:34:29.814Z,11.60
2023-04-26T04:37:04.691Z,7.90
2023-04-26T04:39:38.718Z,10.30
2023-04-26T04:42:12.795Z,9.20
2023-04-26T04:44:47.264Z,12.20
2023-04-26T04:47:21.107Z,8.60
2023-04-26T04:49:54.901Z,8.80
2023-04-26T04:52:28.562Z,5.70
2023-04-26T04:55:05.678Z,8.10
2023-04-26T04:57:40.698Z,4.40
2023-04-26T05:00:18.898Z,5.10
2023-04-26T05:02:52.350Z,3.90
2023-04-26T05:05:26.231Z,3.90
2023-04-26T05:07:59.843Z,11.50
2023-04-26T05:10:33.482Z,7.10
2023-04-26T05:13:07.872Z,13.00
2023-04-26T05:15:42.224Z,6.70
2023-04-26T05:18:15.835Z,6.40
2023-04-26T05:20:49.465Z,5.50
2023-04-26T05:23:23.609Z,2.10
2023-04-26T05:25:57.141Z,3.20
2023-04-26T05:28:30.749Z,6.00
2023-04-26T05:31:04.944Z,4.80
2023-04-26T05:33:38.989Z,6.80
2023-04-26T05:36:14.020Z,2.40
2023-04-26T05:38:48.036Z,0.60
2023-04-26T05:41:22.145Z,2.30
2023-04-26T05:46:29.389Z,4.40
2023-04-26T05:49:06.191Z,3.60
2023-04-26T05:51:40.015Z,7.60
2023-04-26T05:54:13.619Z,1.80
2023-04-26T05:59:20.038Z,5.00
2023-04-26T06:01:53.929Z,3.00
2023-04-26T06:04:27.946Z,2.50
2023-04-26T06:07:02.585Z,3.70
2023-04-26T06:09:36.787Z,6.50
2023-04-26T06:12:10.540Z,3.00
2023-04-26T06:14:44.339Z,4.20
2023-04-26T06:17:18.176Z,3.70
2023-04-26T06:19:51.795Z,3.60
2023-04-26T06:22:28.679Z,4.90
2023-04-26T06:25:02.542Z,7.60
2023-04-26T06:27:36.263Z,4.40
2023-04-26T06:30:12.919Z,4.70
2023-04-26T06:32:46.466Z,2.60
2023-04-26T06:35:20.456Z,8.90
2023-04-26T06:37:54.257Z,7.40
2023-04-26T06:40:28.034Z,5.50
2023-04-26T06:43:01.623Z,4.20
2023-04-26T06:45:35.422Z,7.20
2023-04-26T06:48:09.879Z,3.40
2023-04-26T06:50:44.959Z,4.50
2023-04-26T06:53:23.172Z,3.80
2023-04-26T06:55:58.513Z,4.80
2023-04-26T06:58:32.382Z,4.00
2023-04-26T07:01:06.830Z,4.20
2023-04-26T07:03:42.933Z,3.90
2023-04-26T07:06:17.550Z,3.80
2023-04-26T07:08:51.731Z,4.30
2023-04-26T07:11:26.390Z,4.20
2023-04-26T07:14:04.646Z,4.90
2023-04-26T07:16:38.527Z,5.30
2023-04-26T07:19:12.693Z,4.50
2023-04-26T07:21:46.273Z,12.10
2023-04-26T07:24:20.198Z,8.40
2023-04-26T07:26:54.599Z,7.20
2023-04-26T07:29:28.545Z,4.50
2023-04-26T07:32:02.365Z,6.10
2023-04-26T07:34:36.046Z,5.90
2023-04-26T07:37:09.801Z,5.20
2023-04-26T07:39:44.080Z,6.70
2023-04-26T07:42:18.982Z,5.40
2023-04-26T07:45:10.179Z,5.50
2023-04-26T07:47:44.381Z,6.00
2023-04-26T07:50:18.303Z,7.70
2023-04-26T07:52:51.799Z,7.00
2023-04-26T07:55:25.765Z,5.50
2023-04-26T07:57:59.605Z,5.30
2023-04-26T08:00:33.214Z,7.90
2023-04-26T08:03:10.018Z,10.10
2023-04-26T08:05:44.279Z,6.60
2023-04-26T08:08:18.961Z,13.10
2023-04-26T08:10:53.753Z,8.00
2023-04-26T08:13:29.598Z,8.40
2023-04-26T08:16:04.007Z,8.90
2023-04-26T08:18:39.741Z,13.70
2023-04-26T08:21:13.300Z,8.50
2023-04-26T08:23:47.491Z,9.20
2023-04-26T08:26:21.271Z,14.10
2023-04-26T08:29:00.420Z,13.30
2023-04-26T08:31:34.427Z,16.30
2023-04-26T08:34:09.545Z,13.40
2023-04-26T08:36:45.087Z,11.60
2023-04-26T08:39:19.335Z,17.80
2023-04-26T08:41:56.675Z,13.70
2023-04-26T08:44:30.151Z,12.50
2023-04-26T08:47:08.814Z,11.40
2023-04-26T08:49:48.088Z,13.60
2023-04-26T08:52:25.047Z,12.90
2023-04-26T08:55:00.629Z,10.90
2023-04-26T08:57:35.430Z,11.70
2023-04-26T09:00:12.882Z,13.80
2023-04-26T09:02:51.497Z,9.00
2023-04-26T09:05:27.151Z,8.40
2023-04-26T09:08:04.090Z,11.60
2023-04-26T09:10:38.524Z,8.60
2023-04-26T09:13:14.467Z,9.10
2023-04-26T09:15:52.110Z,10.40
2023-04-26T09:18:27.006Z,9.00
2023-04-26T09:21:11.165Z,15.60
2023-04-26T09:24:01.522Z,10.40
2023-04-26T09:26:35.208Z,13.80
2023-04-26T09:29:20.991Z,11.30
2023-04-26T09:31:56.090Z,8.50
2023-04-26T09:34:30.046Z,7.20
2023-04-26T09:37:03.682Z,12.90
2023-04-26T09:39:38.670Z,8.90
2023-04-26T09:42:13.212Z,6.40
2023-04-26T09:44:48.152Z,8.80
2023-04-26T09:47:23.264Z,12.80
2023-04-26T09:49:58.451Z,7.80
2023-04-26T09:52:34.445Z,13.50
2023-04-26T09:55:16.435Z,8.20
2023-04-26T09:58:02.052Z,7.60
2023-04-26T10:00:35.798Z,9.70
2023-04-26T10:03:12.205Z,8.00
2023-04-26T10:05:47.662Z,8.60
2023-04-26T10:08:28.416Z,9.60
2023-04-26T10:11:02.695Z,8.10
2023-04-26T10:13:37.519Z,13.90
2023-04-26T10:16:14.446Z,8.20
2023-04-26T10:18:49.760Z,8.60
2023-04-26T10:21:37.499Z,9.10
2023-04-26T10:24:12.490Z,6.60
2023-04-26T10:26:55.198Z,15.30
2023-04-26T10:29:52.124Z,9.60
2023-04-26T10:32:35.632Z,6.70
2023-04-26T10:35:18.296Z,10.90
2023-04-26T10:38:16.396Z,11.10
2023-04-26T10:40:55.113Z,10.20
2023-04-26T10:43:39.124Z,10.20
2023-04-26T10:46:43.699Z,7.70
2023-04-26T10:49:26.659Z,10.70
2023-04-26T10:52:17.290Z,8.70
2023-04-26T10:54:55.595Z,7.30
2023-04-26T10:57:57.893Z,8.00
2023-04-26T11:00:35.487Z,11.50
2023-04-26T11:03:10.879Z,7.70
2023-04-26T11:05:56.751Z,7.70
2023-04-26T11:08:32.329Z,10.40
2023-04-26T11:11:15.801Z,11.40
2023-04-26T11:13:50.087Z,8.80
2023-04-26T11:16:27.220Z,10.50
2023-04-26T11:19:00.885Z,9.80
2023-04-26T11:21:34.993Z,8.90
2023-04-26T11:24:10.051Z,11.30
2023-04-26T11:26:45.644Z,9.10
2023-04-26T11:29:23.891Z,11.70
2023-04-26T11:31:59.218Z,11.40
2023-04-26T11:34:39.920Z,9.50
2023-04-26T11:37:14.821Z,8.50
2023-04-26T11:39:49.115Z,8.60
2023-04-26T11:42:29.776Z,7.90
2023-04-26T11:45:07.391Z,11.50
2023-04-26T11:47:43.638Z,9.90
2023-04-26T11:52:49.090Z,11.20
2023-04-26T11:55:24.962Z,5.20
2023-04-26T12:01:03.852Z,11.10
2023-04-26T12:03:39.236Z,6.70
2023-04-26T12:06:13.280Z,12.60
2023-04-26T12:08:53.990Z,7.90
2023-04-26T12:11:27.800Z,11.60
2023-04-26T12:14:03.417Z,8.60
2023-04-26T12:16:39.613Z,6.40
2023-04-26T12:19:24.853Z,8.90
2023-04-26T12:21:58.854Z,6.80
2023-04-26T12:24:34.990Z,12.10
2023-04-26T12:27:10.564Z,8.90
2023-04-26T12:29:45.782Z,9.00
2023-04-26T12:32:30.398Z,8.10
2023-04-26T12:35:08.351Z,12.10
2023-04-26T12:37:42.164Z,8.00
2023-04-26T12:40:17.118Z,7.30
2023-04-26T12:42:53.642Z,11.90
2023-04-26T12:45:29.304Z,5.50
2023-04-26T12:48:03.158Z,7.40
2023-04-26T12:50:38.283Z,4.40
2023-04-26T12:53:12.956Z,7.00
2023-04-26T12:55:46.452Z,7.00
2023-04-26T12:58:22.850Z,8.20
2023-04-26T13:00:56.661Z,7.60
2023-04-26T13:03:30.414Z,5.60
2023-04-26T13:06:07.525Z,9.00
2023-04-26T13:08:41.977Z,8.90
2023-04-26T13:11:16.751Z,6.90
2023-04-26T13:13:51.992Z,5.50
2023-04-26T13:16:25.979Z,10.00
2023-04-26T13:18:59.992Z,8.50
2023-04-26T13:21:35.620Z,7.20
2023-04-26T13:24:10.458Z,6.40
2023-04-26T13:26:44.183Z,7.80
2023-04-26T13:29:21.954Z,11.70
2023-04-26T13:31:57.453Z,10.50
2023-04-26T13:34:31.802Z,7.40
2023-04-26T13:37:05.857Z,6.90
2023-04-26T13:39:40.296Z,14.30
2023-04-26T13:42:15.546Z,9.70
2023-04-26T13:44:52.556Z,9.60
2023-04-26T13:47:29.216Z,8.50
2023-04-26T13:50:03.559Z,8.80
2023-04-26T13:52:37.547Z,9.10
2023-04-26T13:55:16.712Z,12.20
2023-04-26T13:57:50.948Z,11.50
2023-04-26T14:00:25.930Z,8.00
2023-04-26T14:02:59.685Z,6.70
2023-04-26T14:05:33.792Z,8.40
2023-04-26T14:08:08.722Z,7.90
2023-04-26T14:10:44.310Z,8.90
2023-04-26T14:13:20.637Z,12.80
2023-04-26T14:15:58.242Z,6.60
2023-04-26T14:18:32.089Z,9.70
2023-04-26T14:21:06.146Z,8.50
2023-04-26T14:23:40.080Z,4.70
2023-04-26T14:26:15.162Z,8.00
2023-04-26T14:28:49.317Z,6.70
2023-04-26T14:31:26.600Z,6.50
2023-04-26T14:36:40.346Z,10.00
2023-04-26T14:39:18.675Z,10.80
2023-04-26T14:41:52.305Z,9.90
2023-04-26T14:44:27.577Z,7.70
2023-04-26T14:47:02.183Z,8.30
2023-04-26T14:49:36.292Z,13.00
2023-04-26T14:52:11.922Z,12.30
2023-04-26T14:54:54.520Z,8.30
2023-04-26T14:57:30.249Z,6.20
2023-04-26T15:00:10.624Z,10.00
2023-04-26T15:02:50.963Z,7.70
2023-04-26T15:05:27.552Z,9.20
2023-04-26T15:08:04.582Z,9.70
2023-04-26T15:10:38.443Z,6.10
2023-04-26T15:13:15.345Z,10.30
2023-04-26T15:15:51.926Z,17.90
2023-04-26T15:18:33.771Z,15.00
2023-04-26T15:21:11.952Z,8.60
2023-04-26T15:23:45.575Z,7.50
2023-04-26T15:26:19.813Z,7.70
2023-04-26T15:28:54.937Z,10.00
2023-04-26T15:31:39.377Z,6.90
2023-04-26T15:34:15.336Z,8.50
2023-04-26T15:36:49.405Z,8.00
2023-04-26T15:39:29.033Z,8.00
2023-04-26T15:42:02.976Z,11.00
2023-04-26T15:44:44.888Z,12.10
2023-04-26T15:47:22.684Z,10.90
2023-04-26T15:49:58.891Z,11.70
2023-04-26T15:52:32.953Z,10.70
2023-04-26T15:55:08.050Z,12.00
2023-04-26T15:57:45.550Z,8.20
2023-04-26T16:00:23.498Z,6.50
2023-04-26T16:03:00.975Z,9.20
2023-04-26T16:05:38.008Z,10.10
2023-04-26T16:08:24.384Z,7.50
2023-04-26T16:11:10.010Z,11.20
2023-04-26T16:13:44.944Z,9.90
2023-04-26T16:16:20.294Z,8.70
2023-04-26T16:19:00.677Z,8.50
2023-04-26T16:21:36.523Z,20.20
2023-04-26T16:24:12.102Z,17.50
2023-04-26T16:26:48.780Z,23.20
2023-04-26T16:29:25.913Z,13.80
2023-04-26T16:31:59.834Z,17.50
2023-04-26T16:34:35.202Z,17.70
2023-04-26T16:37:09.652Z,17.10
2023-04-26T16:39:43.593Z,18.10
2023-04-26T16:42:17.127Z,22.80
2023-04-26T16:44:56.118Z,10.80
2023-04-26T16:47:30.982Z,17.70
2023-04-26T16:50:09.052Z,18.00
2023-04-26T16:52:45.256Z,16.50
2023-04-26T16:55:20.585Z,18.00
2023-04-26T16:57:54.180Z,16.70
2023-04-26T17:00:32.602Z,27.30
2023-04-26T17:03:27.361Z,22.00
2023-04-26T17:06:02.052Z,21.50
2023-04-26T17:08:42.766Z,14.70
2023-04-26T17:11:24.567Z,19.80
2023-04-26T17:14:02.055Z,14.60
2023-04-26T17:16:37.027Z,12.60
2023-04-26T17:19:15.813Z,15.90
2023-04-26T17:21:50.170Z,12.50
2023-04-26T17:24:26.185Z,11.70
2023-04-26T17:26:59.958Z,12.20
2023-04-26T17:29:35.381Z,8.30
2023-04-26T17:32:20.515Z,17.60
2023-04-26T17:34:56.269Z,14.60
2023-04-26T17:37:30.972Z,13.30
2023-04-26T17:40:08.430Z,12.00
2023-04-26T17:42:42.500Z,8.50
2023-04-26T17:45:28.938Z,11.90
2023-04-26T17:48:03.035Z,13.60
2023-04-26T17:50:38.016Z,14.40
2023-04-26T17:53:13.222Z,12.80
2023-04-26T17:56:00.761Z,19.70
2023-04-26T17:58:39.138Z,13.90
2023-04-26T18:01:13.129Z,9.10
2023-04-26T18:03:49.549Z,9.10
2023-04-26T18:06:23.411Z,12.00
2023-04-26T18:08:56.927Z,10.50
2023-04-26T18:11:32.343Z,7.20
2023-04-26T18:14:06.774Z,8.40
2023-04-26T18:16:47.565Z,8.10
2023-04-26T18:19:24.593Z,11.20
2023-04-26T18:21:58.585Z,12.50
2023-04-26T18:24:36.161Z,9.20
2023-04-26T18:27:14.883Z,8.00
2023-04-26T18:29:54.206Z,12.60
2023-04-26T18:32:39.179Z,15.60
2023-04-26T18:35:23.478Z,12.60
2023-04-26T18:38:03.954Z,10.80
2023-04-26T18:40:45.875Z,11.90
2023-04-26T18:43:22.486Z,18.10
2023-04-26T18:46:01.226Z,12.80
2023-04-26T18:48:48.613Z,14.60
2023-04-26T18:51:41.651Z,11.70
2023-04-26T18:54:26.795Z,18.00
2023-04-26T18:57:03.356Z,13.70
2023-04-26T18:59:37.997Z,9.10
2023-04-26T19:02:13.734Z,9.50
2023-04-26T19:05:03.025Z,12.70
2023-04-26T19:07:46.448Z,13.20
2023-04-26T19:10:31.020Z,12.90
2023-04-26T19:13:10.707Z,11.10
2023-04-26T19:15:54.411Z,11.80
2023-04-26T19:18:28.312Z,16.00
2023-04-26T19:21:15.324Z,10.70
2023-04-26T19:23:55.950Z,11.30
2023-04-26T19:26:37.062Z,9.30
2023-04-26T19:29:13.678Z,11.60
2023-04-26T19:32:12.897Z,9.50
2023-04-26T19:34:48.330Z,7.70
2023-04-26T19:37:25.087Z,9.20
2023-04-26T19:40:02.956Z,10.20
2023-04-26T19:42:39.826Z,10.50
2023-04-26T19:45:26.604Z,16.60
2023-04-26T19:48:06.435Z,17.60
2023-04-26T19:50:46.381Z,7.90
2023-04-26T19:53:27.914Z,14.20
2023-04-26T19:56:04.188Z,15.70
2023-04-26T19:58:42.336Z,14.70
2023-04-26T20:01:20.555Z,7.90
2023-04-26T20:03:57.898Z,14.40
2023-04-26T20:06:42.887Z,8.80
2023-04-26T20:09:20.789Z,10.00
2023-04-26T20:11:58.846Z,9.00
2023-04-26T20:14:34.281Z,8.30
2023-04-26T20:17:17.276Z,7.70
2023-04-26T20:19:51.366Z,12.60
2023-04-26T20:22:30.824Z,9.30
2023-04-26T20:25:21.494Z,13.40
2023-04-26T20:27:57.164Z,15.10
2023-04-26T20:30:43.221Z,9.80
2023-04-26T20:33:28.601Z,9.70
2023-04-26T20:36:08.352Z,9.00
2023-04-26T20:38:59.420Z,8.80
2023-04-26T20:41:36.366Z,10.60
2023-04-26T20:44:13.532Z,11.80
2023-04-26T20:46:48.870Z,17.40
2023-04-26T20:49:23.145Z,11.90
2023-04-26T20:51:58.238Z,12.00
2023-04-26T20:54:36.862Z,10.30
2023-04-26T20:57:10.511Z,9.60
2023-04-26T20:59:47.578Z,18.70
2023-04-26T21:02:24.165Z,14.00
2023-04-26T21:05:13.656Z,10.50
2023-04-26T21:07:53.447Z,10.20
2023-04-26T21:10:30.516Z,9.20
2023-04-26T21:13:08.544Z,10.40
2023-04-26T21:15:44.086Z,10.00
2023-04-26T21:18:20.689Z,19.10
2023-04-26T21:20:54.912Z,11.20
2023-04-26T21:23:36.364Z,6.60
2023-04-26T21:26:14.414Z,10.00
2023-04-26T21:28:52.802Z,12.10
2023-04-26T21:31:32.661Z,9.30
2023-04-26T21:34:14.478Z,10.90
2023-04-26T21:36:57.797Z,9.50
2023-04-26T21:39:34.872Z,7.30
2023-04-26T21:42:09.017Z,9.00
2023-04-26T21:44:42.959Z,12.50
2023-04-26T21:47:17.056Z,9.70
2023-04-26T21:49:56.375Z,16.30
2023-04-26T21:52:30.290Z,6.80
2023-04-26T21:55:04.487Z,8.30
2023-04-26T21:57:38.041Z,8.30
2023-04-26T22:00:18.603Z,9.30
2023-04-26T22:02:53.037Z,7.70
2023-04-26T22:05:27.736Z,9.50
2023-04-26T22:08:04.138Z,12.70
2023-04-26T22:10:38.361Z,12.30
2023-04-26T22:13:12.165Z,7.50
2023-04-26T22:15:47.548Z,8.50
2023-04-26T22:18:26.370Z,9.90
2023-04-26T22:21:01.484Z,12.50
2023-04-26T22:23:36.386Z,7.20
2023-04-26T22:26:10.642Z,8.60
2023-04-26T22:28:45.131Z,12.10
2023-04-26T22:31:18.784Z,9.90
2023-04-26T22:33:53.433Z,7.30
2023-04-26T22:36:29.149Z,10.30
2023-04-26T22:39:03.473Z,14.60
2023-04-26T22:41:39.840Z,8.20
2023-04-26T22:44:15.197Z,8.80
2023-04-26T22:46:48.963Z,9.70
2023-04-26T22:49:23.677Z,13.80
2023-04-26T22:52:07.809Z,12.70
2023-04-26T22:54:43.744Z,7.10
2023-04-26T22:57:17.600Z,9.20
2023-04-26T22:59:51.312Z,10.90
2023-04-26T23:02:24.986Z,8.00
2023-04-26T23:04:58.946Z,10.20
2023-04-26T23:07:33.793Z,8.40
2023-04-26T23:10:09.267Z,8.30
2023-04-26T23:12:45.395Z,11.90
2023-04-26T23:15:19.716Z,9.00
2023-04-26T23:17:54.285Z,10.20
2023-04-26T23:20:28.649Z,9.90
2023-04-26T23:23:02.126Z,9.50
2023-04-26T23:25:36.200Z,18.00
2023-04-26T23:28:10.460Z,17.30
2023-04-26T23:30:45.006Z,22.00
2023-04-26T23:33:18.570Z,13.20
2023-04-26T23:35:56.114Z,9.50
2023-04-26T23:38:31.247Z,18.70
2023-04-26T23:41:04.897Z,14.40
2023-04-26T23:43:41.338Z,11.30
2023-04-26T23:46:14.915Z,7.10
2023-04-26T23:48:49.152Z,8.10
2023-04-26T23:51:24.122Z,12.20
2023-04-26T23:53:57.667Z,10.70
2023-04-26T23:56:31.922Z,14.10
2023-04-26T23:59:05.548Z,9.10
